KFTY/FTY METAR and TAF weather

Enter ICAO airport designator
Station Type Date Time Source
KFTY METAR 2019/02/16 06:53 UTC NOAA

KFTY 160653Z 21008KT 10SM OVC008 16/16 A2973 RMK AO2 RAB0557E25 CIG 007V011 SLP063 P0001 T01560156


Station Type Date Time Source
KFTY Decoded METAR 2019/02/16 06:53 UTC NOAA

ATLANTA FULTON COUNTY AIRPORT , GA, United States (KFTY) 33-47N 84-31W 263M
Feb 16, 2019 - 01:53 AM EST / 2019.02.16 0653 UTC
Wind: from the SSW (210 degrees) at 9 MPH (8 KT):0
Visibility: 10 mile(s):0
Sky conditions: overcast
Precipitation last hour: 0.01 inches
Temperature: 60.1 F (15.6 C)
Dew Point: 60.1 F (15.6 C)
Relative Humidity: 100%
Pressure (altimeter): 29.73 in. Hg (1006 hPa)
ob: KFTY 160653Z 21008KT 10SM OVC008 16/16 A2973 RMK AO2 RAB0557E25 CIG 007V011 SLP063 P0001 T01560156
cycle: 7

Station Type Date Time Source
KFTY TAF 2019/02/16 06:34 UTC NOAA

TAF KFTY 160532Z 1606/1706 21006KT 6SM -SHRA BR OVC008
FM161000 25008KT 6SM -SHRA OVC007
FM161200 27007KT P6SM VCSH OVC007
FM161400 30006KT P6SM OVC015
FM161700 29007KT P6SM BKN040
FM170000 VRB03KT P6SM BKN100


Example: see airport list